Terminal Aerodrome Forecast
Issued by NWS Sterling, VA

Current Version | Previous Version | Graphics & Text | Print | Product List | Glossary On
Versions: 1 2 3 4 5 6 7 8 9 10 11 12 13 14 15 16 17 18 19 20 21 22
000
FTUS41 KLWX 281720
TAFDCA
TAF
KDCA 281720Z 2818/2918 05006KT 5SM -RA BR SCT015 OVC045
     FM282100 12008KT 2SM -SHRA VCTS OVC025CB
     FM290300 10008KT 3SM -TSRA OVC008CB
     FM290600 11008KT 3SM -SHRA BR OVC008=

USA.gov is the U.S. government's official web portal to all federal, state and local government web resources and services.